Cliftonville, Mississippi
Current Conditions -  °F | °C
As of 8:55 PM on Tuesday 25 Nov 2014 (Local Time) from KGTR Reporting Station
Few Clouds Few Clouds  
Wind Chill: 41°   Ceiling: Unl
Heat Index: 41°   Visibility: 10mi
Dew Point: 27°   Wind: 3mph
Humidity: 57%   Direction: 310°NW
Pressure: 30.18"   Gusts: NA
Location:  33.2136°N, 88.5275°W
Report Text: KGTR 260255Z 31003KT 10SM FEW120 05/M03 A3018 RMK AO1 52003
Loading
Personal Weather Stations






























Interactive Weather Map New forecast layout! Learn more

10-Day Weather Forecast

Advertisements
Track Severe Weather on mobile